createdAt,value
2019-02-19T00:03:36.139Z,9.60
2019-02-19T00:06:37.434Z,9.50
2019-02-19T00:12:23.113Z,9.60
2019-02-19T00:15:43.370Z,9.60
2019-02-19T00:22:09.207Z,9.60
2019-02-19T00:27:52.487Z,9.50
2019-02-19T00:33:37.791Z,9.50
2019-02-19T00:36:38.331Z,9.50
2019-02-19T00:42:23.383Z,9.50
2019-02-19T00:48:01.935Z,9.40
2019-02-19T00:53:51.674Z,9.40
2019-02-19T00:56:52.857Z,9.40
2019-02-19T01:02:37.383Z,9.40
2019-02-19T01:08:22.964Z,9.30
2019-02-19T01:14:09.574Z,9.30
2019-02-19T01:17:10.690Z,9.30
2019-02-19T01:22:55.391Z,9.20
2019-02-19T01:28:59.695Z,9.30
2019-02-19T01:32:01.825Z,9.20
2019-02-19T01:37:47.548Z,9.20
2019-02-19T01:43:33.378Z,9.30
2019-02-19T01:49:19.989Z,9.20
2019-02-19T01:52:21.162Z,9.20
2019-02-19T01:58:06.681Z,9.10
2019-02-19T02:01:26.226Z,9.20
2019-02-19T02:07:51.025Z,9.10
2019-02-19T02:13:40.918Z,9.10
2019-02-19T02:20:19.489Z,9.00
2019-02-19T02:43:24.819Z,9.10
2019-02-19T03:11:02.900Z,9.00
2019-02-19T03:14:04.179Z,8.90
2019-02-19T03:19:49.475Z,8.90
2019-02-19T03:25:35.114Z,8.90
2019-02-19T03:28:35.596Z,8.90
2019-02-19T03:41:29.893Z,8.90
2019-02-19T03:44:31.171Z,8.80
2019-02-19T03:50:15.791Z,8.90
2019-02-19T03:55:59.156Z,8.80
2019-02-19T03:58:59.508Z,8.70
2019-02-19T04:01:59.957Z,8.70
2019-02-19T04:05:03.551Z,8.70
2019-02-19T04:10:50.986Z,8.80
2019-02-19T04:16:37.958Z,8.70
2019-02-19T04:26:30.078Z,8.70
2019-02-19T04:29:52.601Z,8.60
2019-02-19T04:35:57.625Z,8.70
2019-02-19T04:42:23.754Z,8.60
2019-02-19T04:51:41.380Z,8.60
2019-02-19T04:58:06.258Z,8.50
2019-02-19T05:01:07.690Z,8.40
2019-02-19T05:04:27.478Z,8.50
2019-02-19T05:07:31.392Z,8.50
2019-02-19T05:10:36.969Z,8.50
2019-02-19T05:16:21.849Z,8.40
2019-02-19T05:22:13.341Z,8.50
2019-02-19T05:25:33.617Z,8.40
2019-02-19T05:41:31.183Z,8.40
2019-02-19T05:47:17.381Z,8.20
2019-02-19T05:53:24.031Z,8.20
2019-02-19T05:56:23.076Z,8.20
2019-02-19T05:59:24.271Z,8.20
2019-02-19T06:05:33.177Z,8.10
2019-02-19T06:11:44.574Z,8.10
2019-02-19T06:17:36.402Z,8.00
2019-02-19T06:23:27.294Z,8.00
2019-02-19T06:29:13.975Z,8.00
2019-02-19T06:32:14.423Z,8.00
2019-02-19T06:38:00.150Z,7.90
2019-02-19T06:43:49.207Z,7.90
2019-02-19T06:53:37.443Z,7.80
2019-02-19T06:56:37.781Z,7.80
2019-02-19T07:06:11.317Z,7.90
2019-02-19T07:09:12.837Z,7.90
2019-02-19T07:15:52.888Z,8.00
2019-02-19T07:18:54.131Z,8.00
2019-02-19T07:27:51.082Z,8.10
2019-02-19T07:36:40.823Z,8.10
2019-02-19T07:42:48.466Z,8.20
2019-02-19T07:45:52.293Z,8.10
2019-02-19T07:48:53.484Z,8.20
2019-02-19T07:54:43.487Z,8.20
2019-02-19T08:04:29.181Z,8.20
2019-02-19T08:07:49.379Z,8.20
2019-02-19T08:10:50.893Z,8.20
2019-02-19T08:13:52.719Z,8.30
2019-02-19T08:20:31.599Z,8.40
2019-02-19T08:26:20.911Z,8.60
2019-02-19T08:29:22.226Z,8.60
2019-02-19T08:35:08.686Z,8.60
2019-02-19T08:38:09.163Z,8.60
2019-02-19T08:41:10.068Z,8.60
2019-02-19T08:50:20.478Z,8.70
2019-02-19T08:56:09.307Z,8.60
2019-02-19T09:02:08.830Z,8.70
2019-02-19T09:05:14.911Z,8.80
2019-02-19T09:11:53.723Z,8.80
2019-02-19T09:18:20.429Z,8.70
2019-02-19T09:21:22.974Z,8.70
2019-02-19T09:27:08.831Z,8.80
2019-02-19T09:33:12.303Z,8.90
2019-02-19T09:36:13.491Z,8.90
2019-02-19T09:39:19.754Z,9.00
2019-02-19T09:42:19.354Z,9.00
2019-02-19T09:48:06.162Z,9.20
2019-02-19T09:54:16.898Z,9.20
2019-02-19T09:57:22.475Z,9.40
2019-02-19T10:03:08.343Z,9.50
2019-02-19T10:12:18.365Z,9.70
2019-02-19T10:18:09.963Z,9.70
2019-02-19T10:23:50.651Z,9.80
2019-02-19T10:26:56.803Z,9.90
2019-02-19T10:33:34.135Z,10.20
2019-02-19T10:39:32.486Z,10.20
2019-02-19T10:42:38.980Z,10.40
2019-02-19T10:48:25.582Z,10.60
2019-02-19T10:58:22.938Z,10.50
2019-02-19T11:04:05.406Z,10.20
2019-02-19T11:09:50.902Z,10.30
2019-02-19T11:12:52.197Z,10.40
2019-02-19T11:15:52.955Z,10.40
2019-02-19T11:18:54.030Z,10.40
2019-02-19T11:24:39.589Z,10.30
2019-02-19T11:30:25.090Z,10.50
2019-02-19T11:36:11.524Z,10.60
2019-02-19T11:39:12.707Z,10.40
2019-02-19T11:44:56.510Z,10.40
2019-02-19T11:51:02.143Z,10.30
2019-02-19T11:56:49.620Z,10.30
2019-02-19T12:06:07.358Z,10.50
2019-02-19T12:15:03.050Z,10.70
2019-02-19T12:18:05.158Z,10.70
2019-02-19T12:21:05.883Z,10.70
2019-02-19T12:24:06.978Z,10.80
2019-02-19T12:27:29.940Z,10.60
2019-02-19T12:30:31.427Z,10.70
2019-02-19T12:36:18.138Z,10.80
2019-02-19T12:42:09.026Z,11.00
2019-02-19T12:47:54.558Z,10.80
2019-02-19T12:54:00.138Z,10.90
2019-02-19T12:57:00.624Z,10.90
2019-02-19T13:02:45.127Z,11.00
2019-02-19T13:11:56.063Z,11.00
2019-02-19T13:17:40.084Z,11.20
2019-02-19T13:21:00.124Z,11.40
2019-02-19T13:27:30.003Z,11.50
2019-02-19T13:33:17.611Z,12.00
2019-02-19T13:39:03.143Z,11.90
2019-02-19T13:42:09.440Z,11.50
2019-02-19T13:52:22.566Z,11.20
2019-02-19T14:01:30.173Z,10.90
2019-02-19T14:04:29.324Z,10.80
2019-02-19T14:10:14.074Z,10.70
2019-02-19T14:13:15.263Z,10.70
2019-02-19T14:19:08.826Z,10.70
2019-02-19T14:24:53.914Z,10.60
2019-02-19T14:27:54.418Z,10.60
2019-02-19T14:30:55.142Z,10.70
2019-02-19T14:33:55.767Z,10.80
2019-02-19T14:39:40.688Z,10.80
2019-02-19T14:45:44.229Z,10.80
2019-02-19T14:58:07.475Z,10.80
2019-02-19T15:01:28.892Z,10.80
2019-02-19T15:11:21.831Z,10.80
2019-02-19T15:17:23.259Z,11.00
2019-02-19T15:20:22.494Z,10.90
2019-02-19T15:26:10.056Z,10.80
2019-02-19T15:35:05.670Z,10.80
2019-02-19T15:38:11.258Z,10.70
2019-02-19T15:41:12.906Z,10.70
2019-02-19T15:44:13.335Z,10.70
2019-02-19T15:47:19.578Z,10.70
2019-02-19T15:53:10.330Z,10.50
2019-02-19T15:59:55.830Z,10.50
2019-02-19T16:06:20.371Z,10.30
2019-02-19T16:09:28.893Z,10.30
2019-02-19T16:15:55.655Z,10.10
2019-02-19T16:18:56.894Z,10.20
2019-02-19T16:22:10.807Z,10.10
2019-02-19T16:25:30.928Z,10.10
2019-02-19T16:28:31.387Z,10.00
2019-02-19T16:34:17.118Z,10.10
2019-02-19T16:40:02.252Z,10.10
2019-02-19T16:46:07.935Z,10.20
2019-02-19T16:52:19.638Z,10.20
2019-02-19T16:55:23.774Z,10.00
2019-02-19T17:01:49.240Z,9.60
2019-02-19T17:04:49.783Z,9.10
2019-02-19T17:10:34.704Z,8.80
2019-02-19T17:13:35.252Z,8.60
2019-02-19T17:19:40.941Z,8.40
2019-02-19T17:25:26.552Z,8.60
2019-02-19T17:28:41.165Z,8.50
2019-02-19T17:31:42.494Z,8.50
2019-02-19T17:34:48.659Z,8.50
2019-02-19T17:40:34.449Z,8.50
2019-02-19T17:43:41.506Z,8.70
2019-02-19T17:46:42.757Z,8.60
2019-02-19T17:52:48.153Z,8.70
2019-02-19T17:55:49.610Z,8.70
2019-02-19T18:01:34.497Z,8.60
2019-02-19T18:07:19.214Z,8.60
2019-02-19T18:13:15.754Z,8.70
2019-02-19T18:16:16.573Z,8.70
2019-02-19T18:22:01.284Z,8.50
2019-02-19T18:27:46.903Z,8.60
2019-02-19T18:30:47.534Z,8.50
2019-02-19T18:33:48.608Z,8.60
2019-02-19T18:36:49.104Z,8.60
2019-02-19T18:42:34.016Z,8.40
2019-02-19T18:45:35.211Z,8.40
2019-02-19T18:48:36.473Z,8.30
2019-02-19T18:51:37.036Z,8.30
2019-02-19T18:54:39.458Z,8.20
2019-02-19T19:00:46.663Z,8.50
2019-02-19T19:03:47.459Z,8.40
2019-02-19T19:09:32.091Z,8.30
2019-02-19T19:12:32.312Z,8.40
2019-02-19T19:18:19.306Z,8.50
2019-02-19T19:24:04.119Z,8.50
2019-02-19T19:29:48.673Z,8.60
2019-02-19T19:38:39.755Z,8.50
2019-02-19T19:44:45.460Z,8.60
2019-02-19T19:50:29.175Z,8.60
2019-02-19T19:53:30.887Z,8.70
2019-02-19T19:56:32.196Z,8.60
2019-02-19T19:59:50.785Z,8.60
2019-02-19T20:05:35.892Z,8.70
2019-02-19T20:08:36.449Z,8.50
2019-02-19T20:11:37.079Z,8.60
2019-02-19T20:14:38.540Z,8.60
2019-02-19T20:20:23.318Z,8.60
2019-02-19T20:26:29.143Z,8.60
2019-02-19T20:32:14.552Z,8.50
2019-02-19T20:35:14.837Z,8.50
2019-02-19T20:40:55.074Z,8.70
2019-02-19T20:46:44.815Z,8.60
2019-02-19T20:52:30.565Z,8.60
2019-02-19T20:58:15.987Z,8.60
2019-02-19T21:01:17.234Z,8.70
2019-02-19T21:07:02.006Z,8.70
2019-02-19T21:12:46.575Z,8.70
2019-02-19T21:18:38.167Z,8.60
2019-02-19T21:24:24.058Z,8.60
2019-02-19T21:27:25.263Z,8.60
2019-02-19T21:36:15.442Z,8.50
2019-02-19T21:39:17.913Z,8.60
2019-02-19T21:45:04.567Z,8.50
2019-02-19T21:48:04.755Z,8.60
2019-02-19T21:51:06.330Z,8.60
2019-02-19T21:54:07.491Z,8.50
2019-02-19T21:57:09.040Z,8.50
2019-02-19T22:00:10.191Z,8.40
2019-02-19T22:06:49.496Z,8.40
2019-02-19T22:09:50.702Z,8.40
2019-02-19T22:12:51.074Z,8.40
2019-02-19T22:15:52.424Z,8.30
2019-02-19T22:18:53.112Z,8.40
2019-02-19T22:25:27.072Z,8.40
2019-02-19T22:31:12.626Z,8.30
2019-02-19T22:34:13.281Z,8.30
2019-02-19T22:37:13.858Z,8.30
2019-02-19T22:40:14.795Z,8.30
2019-02-19T22:46:01.193Z,8.30
2019-02-19T22:51:46.055Z,8.30
2019-02-19T22:54:46.657Z,8.20
2019-02-19T22:57:48.210Z,8.20
2019-02-19T23:00:49.572Z,8.20
2019-02-19T23:06:34.106Z,8.20
2019-02-19T23:09:35.453Z,8.20
2019-02-19T23:18:30.850Z,8.20
2019-02-19T23:21:31.975Z,8.10
2019-02-19T23:27:17.000Z,8.00
2019-02-19T23:30:17.786Z,8.00
2019-02-19T23:36:02.639Z,8.00
2019-02-19T23:42:09.049Z,8.00
2019-02-19T23:47:53.648Z,8.00
2019-02-19T23:50:54.784Z,7.90
2019-02-19T23:56:39.835Z,8.00
